Aktualna pogoda na lotniskach (dane METAR)

 

EPGD - Gdansk/Rebiechow, Poland
Distance from station: ENE 44km
Updated: Sun, 23-Sep-2018 23:30 CEST
Clear
Clear
 Wind from WNW
Wiatr: WNW 13 km/h
Temperatura: 9°C
Indeks Wychł.: 7°C
Punkt Rosy: 8°C
Wilgotność: 94%
Ciśnienie: 1004 hPa
Ogólnie: Clear
Widzialność: greater than 10 km
2018/09/23 21:30 EPGD 232130Z 29007KT CAVOK 09/08 Q1004
EPSC - Szczecin/Golenio, Poland
Distance from station: WSW 205km
Updated: Sun, 23-Sep-2018 23:30 CEST
Light rain, Few clouds
Light rain, Few clouds
 Wind from SW
Wiatr: SW 7 km/h
Temperatura: 9°C
Indeks Wychł.: 8°C
Punkt Rosy: 7°C
Wilgotność: 87%
Ciśnienie: 1008 hPa
Ogólnie: Light Rain
Zachmurzenie: Few Clouds
Widzialność: 10 km
Szczegóły zachm.: Few Clouds 1067 m
2018/09/23 21:30 EPSC 232130Z 23004KT 9999 -RA FEW035 09/07 Q1008
 
EPPO - Poznan/Lawica, Poland
Distance from station: SSW 210km
Updated: Sun, 23-Sep-2018 23:30 CEST
Light rain, Overcast
Light rain, Overcast
 Wind from N
Wiatr: N 19 km/h
Temperatura: 9°C
Indeks Wychł.: 6°C
Punkt Rosy: 9°C
Wilgotność: 100%
Ciśnienie: 1005 hPa
Ogólnie: Light Rain
Zachmurzenie: Overcast
Widzialność: 10 km
Szczegóły zachm.: Mostly Cloudy 152 m
Overcast 1097 m
2018/09/23 21:30 EPPO 232130Z 35010KT 9999 -RA BKN005 OVC036 09/09 Q1005 R10/290393
EPLL - Lodz/Lublinek, Poland
Distance from station: SSE 296km
Updated: Sun, 23-Sep-2018 23:30 CEST
Light rain, Mostly cloudy
Light rain, Mostly cloudy
 Wind from E
Wiatr: E 26 km/h
Temperatura: 10°C
Indeks Wychł.: 7°C
Punkt Rosy: 10°C
Wilgotność: 100%
Ciśnienie: 998 hPa
Ogólnie: Light Rain
Zachmurzenie: Mostly Cloudy
Widzialność: 10 km
Szczegóły zachm.: Mostly Cloudy 152 m
2018/09/23 21:30 EPLL 232130Z 08014KT 9999 -RA BKN005 10/10 Q0998
 
EPWA - Warsaw/Okecie, Poland
Distance from station: SE 307km
Updated: Sun, 23-Sep-2018 23:30 CEST
Light rain, Mostly cloudy
Light rain, Mostly cloudy
 Wind from E
Wiatr: E 19 km/h
Temperatura: 11°C
Punkt Rosy: 10°C
Wilgotność: 94%
Ciśnienie: 1001 hPa
Ogólnie: Light Rain
Zachmurzenie: Mostly Cloudy
Widzialność: 10 km
Szczegóły zachm.: Mostly Cloudy 122 m
Mostly Cloudy 1311 m
2018/09/23 21:30 EPWA 232130Z 10010KT 9999 -RA BKN004 BKN043 11/10 Q1001 RERA TEMPO RA
EPWR - Wroclaw/Strachow, Poland
Distance from station: S 352km
Updated: Sun, 23-Sep-2018 23:30 CEST
Mostly Cloudy
Mostly Cloudy
 Wind from NW
Wiatr: NW 19 km/h
Temperatura: 11°C
Punkt Rosy: 10°C
Wilgotność: 94%
Ciśnienie: 1000 hPa
Zachmurzenie: Mostly Cloudy
Widzialność: 10 km
Szczegóły zachm.: Partly Cloudy 122 m
Mostly Cloudy 213 m
2018/09/23 21:30 EPWR 232130Z 31010KT 9999 SCT004 BKN007 11/10 Q1000

Metar display script from Saratoga-Weather.org